Time;durP1;ratioP1;P1;durP2;ratioP2;P2;SDS_P1;SDS_P2;PMS_P1;PMS_P2;Temp;Humidity;BMP_temperature;BMP_pressure;BME280_temperature;BME280_humidity;BME280_pressure;Samples;Min_cycle;Max_cycle;Signal;HPM_P1;HPM_P2
2023/09/10 00:01:30;;;;;;;22.17;19.83;;;;;;;19.70;100.00;101576.13;5071876;28;20048;-56
2023/09/10 00:03:59;;;;;;;21.55;19.33;;;;;;;19.68;100.00;101580.75;5070227;28;20052;-56
2023/09/10 00:06:27;;;;;;;22.15;20.02;;;;;;;19.63;100.00;101590.19;5069099;28;20390;-56
2023/09/10 00:08:55;;;;;;;23.58;21.08;;;;;;;19.62;100.00;101589.34;5071878;28;20059;-56
2023/09/10 00:11:23;;;;;;;23.52;21.10;;;;;;;19.63;100.00;101591.00;5069176;28;20446;-56
2023/09/10 00:13:51;;;;;;;23.58;21.15;;;;;;;19.61;100.00;101594.81;5069229;28;20094;-56
2023/09/10 00:16:21;;;;;;;23.80;21.48;;;;;;;19.57;100.00;101588.91;5069902;28;20106;-56
2023/09/10 00:18:49;;;;;;;26.00;23.27;;;;;;;19.59;100.00;101592.28;5068977;28;20416;-56
2023/09/10 00:21:20;;;;;;;26.48;23.77;;;;;;;19.56;100.00;101588.06;5069014;28;20041;-56
2023/09/10 00:23:48;;;;;;;25.73;23.13;;;;;;;19.54;100.00;101589.22;5069359;28;20044;-56
2023/09/10 00:26:16;;;;;;;24.02;21.58;;;;;;;19.52;100.00;101591.16;5071590;28;20375;-56
2023/09/10 00:28:44;;;;;;;27.05;24.17;;;;;;;19.52;100.00;101588.50;5068853;28;20052;-56
2023/09/10 00:31:15;;;;;;;28.02;25.15;;;;;;;19.49;100.00;101591.44;5069561;28;20048;-56
2023/09/10 00:33:45;;;;;;;26.95;24.25;;;;;;;19.57;100.00;101589.75;5068569;28;20555;-56
2023/09/10 00:36:13;;;;;;;27.10;24.33;;;;;;;19.52;100.00;101588.50;5069060;28;20079;-56
2023/09/10 00:38:41;;;;;;;26.60;23.90;;;;;;;19.50;100.00;101582.47;5067652;28;20377;-56
2023/09/10 00:41:09;;;;;;;24.63;22.20;;;;;;;19.48;100.00;101581.75;5068376;28;20052;-55
2023/09/10 00:43:38;;;;;;;25.05;22.52;;;;;;;19.50;100.00;101579.81;5072033;28;20045;-56
2023/09/10 00:46:06;;;;;;;27.38;24.38;;;;;;;19.50;100.00;101583.31;5068229;28;20040;-56
2023/09/10 00:48:36;;;;;;;25.35;22.88;;;;;;;19.47;100.00;101578.25;5067646;28;20060;-56
2023/09/10 00:51:06;;;;;;;26.38;23.63;;;;;;;19.43;100.00;101574.19;5070583;28;20052;-56
2023/09/10 00:53:35;;;;;;;27.00;24.30;;;;;;;19.45;100.00;101580.22;5069856;28;20048;-56
2023/09/10 00:56:03;;;;;;;28.10;25.35;;;;;;;19.39;100.00;101578.13;5068279;28;20105;-56
2023/09/10 00:58:31;;;;;;;27.45;24.73;;;;;;;19.47;100.00;101582.72;5068506;28;20096;-56
2023/09/10 01:01:00;;;;;;;28.13;25.17;;;;;;;19.44;100.00;101578.50;5069472;28;20052;-55
2023/09/10 01:03:31;;;;;;;27.45;24.77;;;;;;;19.42;100.00;101580.50;5070913;28;20582;-56
2023/09/10 01:06:00;;;;;;;27.90;25.17;;;;;;;19.46;100.00;101587.22;5068357;28;20037;-56
2023/09/10 01:08:30;;;;;;;26.80;24.00;;;;;;;19.45;100.00;101576.72;5070566;28;20102;-56
2023/09/10 01:11:07;;;;;;;26.88;24.15;;;;;;;19.39;100.00;101584.28;5068363;28;20056;-56
2023/09/10 01:13:56;;;;;;;27.75;25.05;;;;;;;19.40;100.00;101579.78;5068433;28;20056;-56
2023/09/10 01:16:31;;;;;;;26.77;24.00;;;;;;;19.39;100.00;101586.13;5068456;28;20484;-56
2023/09/10 01:19:08;;;;;;;27.27;24.40;;;;;;;19.33;100.00;101586.66;5067848;28;20059;-56
2023/09/10 01:21:49;;;;;;;25.88;22.98;;;;;;;19.38;100.00;101587.94;5071564;28;20054;-56
2023/09/10 01:24:25;;;;;;;24.20;21.75;;;;;;;19.39;100.00;101591.44;5072787;28;20048;-56
2023/09/10 01:26:59;;;;;;;25.00;21.70;;;;;;;19.32;100.00;101588.50;5069563;28;20063;-56
2023/09/10 01:29:27;;;;;;;23.25;20.77;;;;;;;19.29;100.00;101582.59;5067482;28;20048;-56
2023/09/10 01:32:00;;;;;;;24.00;21.70;;;;;;;19.19;100.00;101590.59;5067417;28;20049;-56
2023/09/10 01:34:35;;;;;;;22.23;20.02;;;;;;;19.20;100.00;101586.94;5066354;28;20048;-56
2023/09/10 01:37:09;;;;;;;25.13;22.50;;;;;;;19.23;100.00;101586.66;5066274;28;20522;-62
2023/09/10 01:39:41;;;;;;;25.02;22.52;;;;;;;19.19;100.00;101585.25;5067357;28;20063;-62
2023/09/10 01:42:11;;;;;;;24.83;22.43;;;;;;;19.18;100.00;101578.22;5071510;28;20396;-62
2023/09/10 01:44:42;;;;;;;24.60;22.25;;;;;;;19.22;100.00;101591.16;5068523;28;20467;-62
2023/09/10 01:47:10;;;;;;;24.05;21.65;;;;;;;19.24;100.00;101585.69;5068616;28;20043;-62
2023/09/10 01:49:39;;;;;;;24.88;22.58;;;;;;;19.20;100.00;101586.94;5068517;28;20450;-56
2023/09/10 01:52:07;;;;;;;26.70;23.98;;;;;;;19.17;100.00;101589.88;5071934;28;20442;-56
2023/09/10 01:54:36;;;;;;;26.65;23.95;;;;;;;19.19;100.00;101587.91;5071409;28;20059;-55
2023/09/10 01:57:04;;;;;;;24.88;22.40;;;;;;;19.19;100.00;101590.59;5070872;28;20155;-56
2023/09/10 01:59:36;;;;;;;26.08;23.48;;;;;;;19.15;100.00;101581.19;5067174;28;20448;-56
2023/09/10 02:02:04;;;;;;;27.15;23.02;;;;;;;19.20;100.00;101592.28;5068198;28;20057;-56
2023/09/10 02:04:32;;;;;;;25.45;22.95;;;;;;;19.18;100.00;101594.22;5067515;28;20117;-55
2023/09/10 02:07:01;;;;;;;24.83;22.50;;;;;;;19.16;100.00;101585.53;5070886;28;20127;-56
2023/09/10 02:09:29;;;;;;;26.63;24.02;;;;;;;19.12;100.00;101590.28;5066457;28;20048;-56
2023/09/10 02:11:57;;;;;;;27.20;24.35;;;;;;;19.02;100.00;101590.28;5066998;28;20457;-56
2023/09/10 02:14:25;;;;;;;27.63;24.83;;;;;;;19.03;100.00;101594.63;5068439;28;20052;-62
2023/09/10 02:16:54;;;;;;;28.02;25.23;;;;;;;19.05;100.00;101597.16;5069129;28;20499;-62
2023/09/10 02:19:22;;;;;;;27.75;24.90;;;;;;;19.03;100.00;101589.31;5066859;28;20052;-62
2023/09/10 02:21:52;;;;;;;28.30;25.42;;;;;;;19.05;100.00;101590.00;5066447;28;20478;-62
2023/09/10 02:24:20;;;;;;;28.20;25.30;;;;;;;19.02;100.00;101590.28;5066718;28;20113;-62
2023/09/10 02:26:48;;;;;;;30.00;26.33;;;;;;;19.05;100.00;101600.66;5065192;28;20053;-62
2023/09/10 02:29:16;;;;;;;29.63;26.73;;;;;;;19.01;100.00;101599.25;5067473;28;20052;-63
2023/09/10 02:31:44;;;;;;;27.58;24.90;;;;;;;19.01;100.00;101595.75;5066548;28;20555;-62
2023/09/10 02:34:14;;;;;;;31.02;27.98;;;;;;;19.03;100.00;101594.63;5067127;28;20056;-62
2023/09/10 02:36:42;;;;;;;31.70;28.42;;;;;;;18.99;100.00;101597.69;5070865;28;20060;-62
2023/09/10 02:39:12;;;;;;;32.55;29.35;;;;;;;19.01;100.00;101596.59;5069798;28;20048;-62
2023/09/10 02:41:40;;;;;;;32.10;28.77;;;;;;;18.96;100.00;101584.66;5065563;28;20495;-62
2023/09/10 02:44:08;;;;;;;31.50;28.40;;;;;;;18.94;100.00;101589.25;5067591;28;20539;-62
2023/09/10 02:46:36;;;;;;;31.60;28.40;;;;;;;18.98;100.00;101598.66;5066561;28;20040;-63
2023/09/10 02:49:05;;;;;;;29.88;26.88;;;;;;;18.98;100.00;101591.53;5067341;28;20128;-62
2023/09/10 02:51:34;;;;;;;30.42;27.33;;;;;;;19.00;100.00;101602.06;5065674;28;20139;-62
2023/09/10 02:54:02;;;;;;;29.98;27.02;;;;;;;19.00;100.00;101602.06;5066616;28;20558;-62
2023/09/10 02:56:30;;;;;;;28.63;25.73;;;;;;;19.01;100.00;101593.91;5065944;28;20048;-62
2023/09/10 02:58:58;;;;;;;28.52;25.70;;;;;;;18.99;100.00;101600.38;5065729;28;20068;-62
2023/09/10 03:01:27;;;;;;;27.70;25.02;;;;;;;18.96;100.00;101601.47;5066824;28;20079;-62
2023/09/10 03:03:55;;;;;;;26.45;23.73;;;;;;;19.01;100.00;101603.75;5065996;28;20419;-62
2023/09/10 03:06:23;;;;;;;25.48;22.77;;;;;;;19.00;100.00;101607.38;5067146;28;20052;-56
2023/09/10 03:08:53;;;;;;;28.55;25.65;;;;;;;18.94;100.00;101606.13;5067563;28;20056;-55
2023/09/10 03:11:21;;;;;;;26.77;23.98;;;;;;;18.94;100.00;101606.13;5067780;28;20052;-55
2023/09/10 03:13:49;;;;;;;29.02;26.20;;;;;;;18.88;100.00;101599.50;5065251;28;20162;-55
2023/09/10 03:16:17;;;;;;;31.00;27.15;;;;;;;18.84;100.00;101608.72;5067219;28;20055;-55
2023/09/10 03:18:45;;;;;;;30.33;27.40;;;;;;;18.81;100.00;101600.16;5066324;28;20570;-56
2023/09/10 03:21:14;;;;;;;30.58;27.58;;;;;;;18.77;100.00;101598.75;5066566;28;20059;-55
2023/09/10 03:23:42;;;;;;;28.33;25.70;;;;;;;18.79;100.00;101602.09;5067276;28;20540;-55
2023/09/10 03:26:12;;;;;;;28.90;26.10;;;;;;;18.75;100.00;101598.88;5070923;28;20052;-55
2023/09/10 03:28:41;;;;;;;28.38;25.65;;;;;;;18.72;100.00;101600.00;5070856;28;20076;-55
2023/09/10 03:31:10;;;;;;;30.90;27.90;;;;;;;18.73;100.00;101593.69;5070057;28;20124;-56
2023/09/10 03:33:38;;;;;;;32.85;29.58;;;;;;;18.73;100.00;101592.81;5065817;28;20059;-56
2023/09/10 03:36:06;;;;;;;33.03;29.67;;;;;;;18.72;100.00;101578.66;5066803;28;20106;-55
2023/09/10 03:38:34;;;;;;;34.08;30.80;;;;;;;18.72;100.00;101576.00;5065598;28;20067;-55
2023/09/10 03:41:05;;;;;;;35.00;31.42;;;;;;;18.71;100.00;101584.97;5064268;28;20045;-55
2023/09/10 03:43:34;;;;;;;35.75;32.15;;;;;;;18.71;100.00;101587.63;5072524;28;20063;-63
2023/09/10 03:46:02;;;;;;;33.47;30.15;;;;;;;18.74;100.00;101579.38;5072693;28;20499;-62
2023/09/10 03:48:30;;;;;;;33.13;29.70;;;;;;;18.77;100.00;101583.59;5069798;28;20046;-62
2023/09/10 03:50:58;;;;;;;34.45;31.15;;;;;;;18.69;100.00;101583.41;5069709;28;20049;-62
2023/09/10 03:53:26;;;;;;;36.83;33.33;;;;;;;18.72;100.00;101575.19;5068697;28;20419;-62
2023/09/10 03:55:57;;;;;;;37.22;33.58;;;;;;;18.68;100.00;101573.72;5068684;28;20057;-62
2023/09/10 03:58:25;;;;;;;34.45;31.10;;;;;;;18.71;100.00;101576.16;5069718;28;20432;-62
2023/09/10 04:00:58;;;;;;;35.13;31.70;;;;;;;18.66;100.00;101578.38;5070086;28;20083;-62
2023/09/10 04:03:29;;;;;;;35.72;32.20;;;;;;;18.68;100.00;101582.59;5072269;28;20052;-62
2023/09/10 04:05:57;;;;;;;36.60;32.85;;;;;;;18.67;100.00;101567.56;5070548;28;20076;-55
2023/09/10 04:08:26;;;;;;;38.25;34.50;;;;;;;18.65;100.00;101577.53;5068660;28;20731;-55
2023/09/10 04:10:54;;;;;;;36.92;33.33;;;;;;;18.67;100.00;101578.22;5067800;28;20052;-55
2023/09/10 04:13:22;;;;;;;40.97;36.72;;;;;;;18.64;100.00;101564.31;5070618;28;20448;-55
2023/09/10 04:15:50;;;;;;;39.40;35.38;;;;;;;18.59;100.00;101572.72;5071623;28;20036;-55
2023/09/10 04:18:22;;;;;;;40.47;36.50;;;;;;;18.59;100.00;101578.06;5069625;28;20070;-56
2023/09/10 04:20:52;;;;;;;39.90;36.07;;;;;;;18.56;100.00;101570.34;5071658;28;20044;-55
2023/09/10 04:23:21;;;;;;;38.00;34.38;;;;;;;18.62;100.00;101568.97;5071737;28;20053;-55
2023/09/10 04:25:51;;;;;;;38.05;34.15;;;;;;;18.62;100.00;101572.47;5067667;28;20488;-55
2023/09/10 04:28:19;;;;;;;41.00;37.03;;;;;;;18.57;100.00;101572.88;5069217;28;20415;-54
2023/09/10 04:30:47;;;;;;;40.17;36.40;;;;;;;18.61;100.00;101581.44;5069302;28;20090;-55
2023/09/10 04:33:16;;;;;;;39.08;35.35;;;;;;;18.56;100.00;101575.69;5068618;28;20044;-55
2023/09/10 04:35:50;;;;;;;40.50;36.70;;;;;;;18.55;100.00;101576.66;5068765;28;20056;-55
2023/09/10 04:38:18;;;;;;;40.60;36.65;;;;;;;18.56;100.00;101581.00;5068115;28;20388;-62
2023/09/10 04:40:46;;;;;;;39.05;35.20;;;;;;;18.57;100.00;101578.19;5069042;28;20128;-62
2023/09/10 04:43:15;;;;;;;38.67;34.85;;;;;;;18.58;100.00;101576.38;5070338;28;20040;-62
2023/09/10 04:45:43;;;;;;;40.10;36.35;;;;;;;18.53;100.00;101578.63;5068642;28;20056;-62
2023/09/10 04:48:12;;;;;;;39.92;36.10;;;;;;;18.56;100.00;101573.00;5072556;28;20037;-62
2023/09/10 04:50:43;;;;;;;40.10;36.00;;;;;;;18.56;100.00;101575.69;5068639;28;20075;-62
2023/09/10 04:53:17;;;;;;;41.03;36.97;;;;;;;18.51;100.00;101581.38;5067532;28;20469;-62
2023/09/10 04:55:45;;;;;;;40.83;36.85;;;;;;;18.54;100.00;101573.16;5067562;28;20047;-62
2023/09/10 04:58:13;;;;;;;41.17;37.30;;;;;;;18.55;100.00;101576.66;5069032;28;20044;-62
2023/09/10 05:00:41;;;;;;;42.13;38.03;;;;;;;18.53;100.00;101579.44;5068349;28;20052;-62
2023/09/10 05:03:09;;;;;;;38.75;34.90;;;;;;;18.52;100.00;101580.41;5068592;28;20056;-62
2023/09/10 05:05:38;;;;;;;41.28;37.17;;;;;;;18.56;100.00;101584.50;5067649;28;20071;-62
2023/09/10 05:08:06;;;;;;;40.25;36.42;;;;;;;18.59;100.00;101586.06;5067417;28;20045;-62
2023/09/10 05:10:36;;;;;;;41.97;37.92;;;;;;;18.55;100.00;101587.31;5067360;28;20060;-62
2023/09/10 05:13:04;;;;;;;40.50;36.60;;;;;;;18.55;100.00;101587.31;5068781;28;20086;-62
2023/09/10 05:15:32;;;;;;;41.90;37.67;;;;;;;18.51;100.00;101591.22;5068676;28;20053;-62
2023/09/10 05:18:00;;;;;;;40.15;36.17;;;;;;;18.55;100.00;101590.78;5068119;28;20047;-62
2023/09/10 05:20:30;;;;;;;40.45;36.47;;;;;;;18.57;100.00;101594.19;5070865;28;20098;-62
2023/09/10 05:22:58;;;;;;;40.13;35.95;;;;;;;18.56;100.00;101596.97;5071112;28;20060;-62
2023/09/10 05:25:26;;;;;;;42.08;38.05;;;;;;;18.55;100.00;101595.28;5072728;28;20052;-63
2023/09/10 05:27:56;;;;;;;41.63;37.22;;;;;;;18.50;100.00;101597.50;5072224;28;20052;-64
2023/09/10 05:30:24;;;;;;;44.05;39.45;;;;;;;18.46;100.00;101594.28;5072136;28;20036;-64
2023/09/10 05:32:52;;;;;;;40.92;37.00;;;;;;;18.51;100.00;101599.19;5072171;28;20052;-64
2023/09/10 05:35:21;;;;;;;39.78;35.90;;;;;;;18.60;100.00;101606.41;5072078;28;20048;-64
2023/09/10 05:37:49;;;;;;;41.20;37.05;;;;;;;18.60;100.00;101606.41;5071897;28;20487;-64
2023/09/10 05:40:17;;;;;;;41.88;37.58;;;;;;;18.56;100.00;101611.13;5072148;28;20054;-64
2023/09/10 05:42:45;;;;;;;41.47;37.47;;;;;;;18.57;100.00;101607.50;5072182;28;20057;-57
2023/09/10 05:45:15;;;;;;;43.10;38.80;;;;;;;18.57;100.00;101604.00;5072492;28;20059;-56
2023/09/10 05:47:43;;;;;;;42.90;38.58;;;;;;;18.61;100.00;101596.56;5072084;28;20037;-64
2023/09/10 05:50:12;;;;;;;41.35;37.38;;;;;;;18.62;100.00;101604.41;5067799;28;20152;-64
2023/09/10 05:52:42;;;;;;;42.78;38.63;;;;;;;18.62;100.00;101599.09;5066005;28;20044;-64
2023/09/10 05:55:11;;;;;;;44.90;40.40;;;;;;;18.62;100.00;101611.59;5071631;28;20376;-64
2023/09/10 05:57:39;;;;;;;44.22;39.83;;;;;;;18.62;100.00;101604.41;5071666;28;20049;-64
2023/09/10 06:00:08;;;;;;;41.97;37.97;;;;;;;18.68;100.00;101608.38;5071864;28;20067;-64
2023/09/10 06:02:38;;;;;;;42.58;38.28;;;;;;;18.70;100.00;101603.75;5068194;28;20067;-63
2023/09/10 06:05:06;;;;;;;42.78;38.65;;;;;;;18.70;100.00;101598.44;5067547;28;20071;-64
2023/09/10 06:07:35;;;;;;;42.42;38.40;;;;;;;18.74;100.00;101597.19;5071612;28;20040;-64
2023/09/10 06:10:06;;;;;;;41.42;37.58;;;;;;;18.74;100.00;101599.84;5071575;28;20110;-64
2023/09/10 06:12:34;;;;;;;42.22;38.22;;;;;;;18.83;100.00;101600.84;5071718;28;20051;-64
2023/09/10 06:15:02;;;;;;;41.88;37.67;;;;;;;18.85;100.00;101599.72;5071521;28;20060;-64
2023/09/10 06:17:30;;;;;;;39.72;35.85;;;;;;;18.88;100.00;101611.97;5067276;28;20055;-63
2023/09/10 06:20:02;;;;;;;41.30;37.08;;;;;;;18.92;100.00;101613.38;5067261;28;20049;-64
2023/09/10 06:22:30;;;;;;;42.30;38.20;;;;;;;18.96;100.00;101614.81;5066478;28;20040;-64
2023/09/10 06:24:58;;;;;;;41.10;37.10;;;;;;;19.03;100.00;101613.31;5066602;28;20487;-63
2023/09/10 06:27:27;;;;;;;41.30;37.28;;;;;;;19.05;100.00;101615.81;5067318;28;20080;-64
2023/09/10 06:29:55;;;;;;;40.40;36.58;;;;;;;19.15;100.00;101614.00;5067306;28;20076;-63
2023/09/10 06:32:23;;;;;;;39.17;35.38;;;;;;;19.21;100.00;101617.94;5067249;28;20500;-64
2023/09/10 06:34:51;;;;;;;39.05;34.97;;;;;;;19.27;100.00;101625.41;5068114;28;20431;-63
2023/09/10 06:37:21;;;;;;;38.80;35.03;;;;;;;19.34;100.00;101620.34;5071038;28;20083;-61
2023/09/10 06:39:49;;;;;;;37.58;33.95;;;;;;;19.41;100.00;101625.00;5071301;28;20044;-61
2023/09/10 06:42:17;;;;;;;40.92;36.85;;;;;;;19.49;100.00;101626.13;5071280;28;20075;-61
2023/09/10 06:44:45;;;;;;;39.08;35.38;;;;;;;19.53;100.00;101632.88;5071300;28;20040;-61
2023/09/10 06:47:13;;;;;;;41.42;37.40;;;;;;;19.56;100.00;101633.41;5071527;28;20047;-61
2023/09/10 06:49:41;;;;;;;40.20;36.10;;;;;;;19.64;100.00;101626.56;5071484;28;20044;-61
2023/09/10 06:52:10;;;;;;;39.08;35.33;;;;;;;19.67;100.00;101629.75;5071144;28;20045;-59
2023/09/10 06:54:40;;;;;;;40.78;36.78;;;;;;;19.78;100.00;101634.13;5070936;28;20496;-59
2023/09/10 06:57:08;;;;;;;36.95;33.45;;;;;;;19.83;100.00;101633.75;5070714;28;20055;-60
2023/09/10 06:59:36;;;;;;;40.88;36.78;;;;;;;19.90;100.00;101635.69;5071047;28;20051;-60
2023/09/10 07:02:05;;;;;;;39.03;35.13;;;;;;;19.99;100.00;101631.34;5069713;28;20044;-60
2023/09/10 07:04:33;;;;;;;38.33;34.63;;;;;;;20.06;100.00;101636.94;5066974;28;20056;-60
2023/09/10 07:07:01;;;;;;;39.65;35.85;;;;;;;20.13;100.00;101632.72;5067148;28;20052;-60
2023/09/10 07:09:32;;;;;;;38.17;34.67;;;;;;;20.26;100.00;101629.75;5066725;28;20045;-60
2023/09/10 07:12:02;;;;;;;40.65;36.53;;;;;;;20.36;100.00;101640.41;5068072;28;20128;-59
2023/09/10 07:14:30;;;;;;;38.80;35.10;;;;;;;20.47;100.00;101634.03;5069311;28;20048;-60
2023/09/10 07:16:58;;;;;;;38.60;34.90;;;;;;;20.56;100.00;101635.81;5071606;28;20040;-59
2023/09/10 07:19:26;;;;;;;39.50;35.67;;;;;;;20.66;100.00;101643.81;5072134;28;20048;-60
2023/09/10 07:21:54;;;;;;;37.78;34.08;;;;;;;20.75;100.00;101646.47;5069692;28;20052;-59
2023/09/10 07:24:21;;;;;;;38.90;35.20;;;;;;;20.86;100.00;101644.56;5069811;28;20058;-60
2023/09/10 07:26:49;;;;;;;37.03;33.53;;;;;;;21.00;100.00;101649.44;5070358;28;20056;-60
2023/09/10 07:29:19;;;;;;;38.92;34.90;;;;;;;21.15;100.00;101646.28;5072126;28;20048;-60
2023/09/10 07:31:47;;;;;;;39.97;36.15;;;;;;;21.28;100.00;101644.91;5071732;28;20048;-61
2023/09/10 07:34:16;;;;;;;39.33;35.33;;;;;;;21.42;100.00;101651.56;5070702;28;20066;-61
2023/09/10 07:36:45;;;;;;;39.85;35.85;;;;;;;21.58;100.00;101648.25;5068305;28;20060;-60
2023/09/10 07:39:14;;;;;;;41.40;37.35;;;;;;;21.76;100.00;101642.88;5070791;28;20037;-60
2023/09/10 07:41:45;;;;;;;42.45;38.25;;;;;;;21.91;100.00;101640.50;5072825;28;20052;-60
2023/09/10 07:44:13;;;;;;;39.35;35.45;;;;;;;22.01;100.00;101640.38;5070599;28;20053;-60
2023/09/10 07:46:43;;;;;;;40.53;36.65;;;;;;;22.16;100.00;101650.56;5071509;28;20052;-60
2023/09/10 07:49:11;;;;;;;40.13;36.30;;;;;;;22.36;100.00;101643.16;5074198;28;20051;-61
2023/09/10 07:51:40;;;;;;;41.83;37.70;;;;;;;22.50;100.00;101649.78;5074206;28;20040;-61
2023/09/10 07:54:08;;;;;;;41.10;37.20;;;;;;;22.71;100.00;101652.88;5074361;28;20318;-61
2023/09/10 07:56:36;;;;;;;39.97;36.15;;;;;;;22.85;100.00;101654.16;5074220;28;20102;-61
2023/09/10 07:59:04;;;;;;;40.15;36.35;;;;;;;22.98;100.00;101652.84;5073978;28;20491;-61
2023/09/10 08:01:33;;;;;;;40.67;36.67;;;;;;;23.12;100.00;101657.56;5073338;28;20052;-62
2023/09/10 08:04:02;;;;;;;40.35;36.35;;;;;;;23.34;100.00;101656.16;5073083;28;20071;-61
2023/09/10 08:06:30;;;;;;;40.55;36.75;;;;;;;23.49;100.00;101660.88;5073650;28;20052;-60
2023/09/10 08:08:59;;;;;;;44.60;40.35;;;;;;;23.71;100.00;101665.59;5072039;28;20102;-61
2023/09/10 08:11:30;;;;;;;41.83;37.78;;;;;;;23.82;100.00;101663.56;5068203;28;20040;-61
2023/09/10 08:13:58;;;;;;;42.33;38.22;;;;;;;23.95;100.00;101656.72;5072799;28;20053;-60
2023/09/10 08:16:26;;;;;;;43.60;39.25;;;;;;;24.19;100.00;101670.31;5070262;28;20128;-61
2023/09/10 08:18:54;;;;;;;42.83;38.65;;;;;;;24.39;100.00;101663.56;5069958;28;20052;-61
2023/09/10 08:21:23;;;;;;;41.33;37.13;;;;;;;24.48;100.00;101667.88;5069370;28;20053;-60
2023/09/10 08:23:54;;;;;;;41.20;37.25;;;;;;;24.72;100.00;101671.56;5069139;28;20491;-60
2023/09/10 08:26:22;;;;;;;37.80;33.90;;;;;;;24.91;100.00;101666.75;5072255;28;20613;-60
2023/09/10 08:28:50;;;;;;;38.28;34.67;;;;;;;25.12;100.00;101664.31;5071106;28;20581;-61
2023/09/10 08:31:18;;;;;;;41.58;37.28;;;;;;;25.23;100.00;101662.25;5069995;28;20111;-61
2023/09/10 08:33:47;;;;;;;38.40;34.58;;;;;;;25.44;100.00;101661.63;5067869;28;20068;-61
2023/09/10 08:36:15;;;;;;;41.45;37.45;;;;;;;25.67;100.00;101663.47;5069757;28;20050;-60
2023/09/10 08:38:44;;;;;;;40.70;36.50;;;;;;;25.74;100.00;101659.03;5071579;28;20049;-60
2023/09/10 08:41:20;;;;;;;38.00;34.20;;;;;;;25.99;100.00;101662.38;5073300;28;20048;-61
2023/09/10 08:43:55;;;;;;;37.28;33.58;;;;;;;26.17;100.00;101658.53;5070639;28;20061;-61
2023/09/10 08:46:30;;;;;;;37.28;33.58;;;;;;;26.35;100.00;101659.00;5069945;28;20418;-61
2023/09/10 08:48:59;;;;;;;35.97;32.47;;;;;;;26.49;100.00;101650.09;5069112;28;20048;-61
2023/09/10 08:51:28;;;;;;;37.28;33.65;;;;;;;26.67;100.00;101656.97;5072092;28;20485;-60
2023/09/10 08:53:59;;;;;;;36.85;33.20;;;;;;;26.83;100.00;101655.94;5073117;28;20048;-60
2023/09/10 08:56:28;;;;;;;35.47;31.88;;;;;;;27.02;100.00;101651.00;5073021;28;20097;-60
2023/09/10 08:58:57;;;;;;;35.00;31.52;;;;;;;27.15;100.00;101657.38;5072937;28;20048;-60
2023/09/10 09:01:25;;;;;;;38.50;34.47;;;;;;;27.21;100.00;101658.47;5070669;28;20114;-60
2023/09/10 09:03:54;;;;;;;37.28;33.70;;;;;;;27.26;100.00;101653.34;5068445;28;20061;-60
2023/09/10 09:06:24;;;;;;;36.83;33.22;;;;;;;27.43;100.00;101659.38;5068232;28;20048;-61
2023/09/10 09:08:55;;;;;;;35.95;32.17;;;;;;;27.60;100.00;101651.00;5072728;28;20072;-60
2023/09/10 09:11:27;;;;;;;;;;;;;;;27.86;100.00;101657.69;5070862;28;20041;-61
2023/09/10 09:13:56;;;;;;;34.72;31.23;;;;;;;27.89;100.00;101652.69;5067970;28;19925;-60
2023/09/10 09:16:25;;;;;;;34.60;31.02;;;;;;;28.01;100.00;101647.63;5071264;28;20060;-60
2023/09/10 09:18:54;;;;;;;35.95;32.17;;;;;;;28.10;100.00;101651.84;5072377;28;20156;-57
2023/09/10 09:21:25;;;;;;;31.33;28.13;;;;;;;28.30;100.00;101646.56;5071452;28;20142;-57
2023/09/10 09:23:58;;;;;;;33.55;30.05;;;;;;;28.38;100.00;101650.97;5066963;28;20076;-60
2023/09/10 09:26:29;;;;;;;31.75;28.75;;;;;;;28.72;100.00;101651.19;5070544;28;20392;-60
2023/09/10 09:28:58;;;;;;;32.88;29.42;;;;;;;28.64;100.00;101654.91;5072083;28;20060;-59
2023/09/10 09:31:26;;;;;;;30.92;27.92;;;;;;;28.63;100.00;101650.50;5072282;28;20598;-59
2023/09/10 09:33:57;;;;;;;30.00;26.92;;;;;;;28.86;100.00;101647.50;5070738;28;20050;-59
2023/09/10 09:36:27;;;;;;;28.50;25.60;;;;;;;28.98;100.00;101645.03;5072171;28;20521;-59
2023/09/10 09:38:56;;;;;;;27.20;24.10;;;;;;;29.16;100.00;101645.31;5072157;28;20044;-60
2023/09/10 09:41:24;;;;;;;26.88;24.08;;;;;;;29.28;100.00;101637.44;5071111;28;20048;-59
2023/09/10 09:43:57;;;;;;;27.70;24.70;;;;;;;29.38;100.00;101636.22;5071742;28;20056;-57
2023/09/10 09:46:31;;;;;;;;;;;;;;;29.62;100.00;101632.06;5072405;28;20526;-57
2023/09/10 09:48:59;;;;;;;26.40;22.33;;;;;;;29.74;100.00;101633.09;5069913;28;20374;-57
2023/09/10 09:51:29;;;;;;;27.27;24.30;;;;;;;29.91;100.00;101632.72;5067011;28;20045;-57
2023/09/10 09:53:57;;;;;;;25.15;22.45;;;;;;;30.14;100.00;101629.56;5070178;28;20049;-57
2023/09/10 09:56:25;;;;;;;24.17;20.33;;;;;;;30.09;100.00;101622.06;5071239;28;20048;-55
2023/09/10 09:58:58;;;;;;;22.80;19.15;;;;;;;30.37;100.00;101623.66;5067150;28;20045;-57
2023/09/10 10:01:27;;;;;;;21.98;18.73;;;;;;;30.20;100.00;101623.28;5067449;28;20474;-58
2023/09/10 10:03:55;;;;;;;20.30;17.13;;;;;;;30.67;100.00;101626.69;5067085;28;20056;-58
2023/09/10 10:06:24;;;;;;;24.80;18.52;;;;;;;30.61;100.00;101621.28;5070119;28;20044;-58
2023/09/10 10:08:52;;;;;;;24.02;16.13;;;;;;;30.76;100.00;101616.44;5071125;28;20128;-58
2023/09/10 10:11:29;;;;;;;24.25;20.35;;;;;;;30.93;97.20;101600.47;5065643;28;20060;-58
2023/09/10 10:14:00;;;;;;;21.13;17.10;;;;;;;31.12;100.00;101609.56;5066930;28;20079;-58
2023/09/10 10:16:31;;;;;;;22.30;16.45;;;;;;;31.24;97.09;101611.59;5067336;28;20052;-58
2023/09/10 10:19:00;;;;;;;22.52;16.52;;;;;;;31.37;95.37;101602.50;5070776;28;20470;-57
2023/09/10 10:21:30;;;;;;;18.67;15.20;;;;;;;31.62;94.94;101602.53;5066489;28;20052;-57
2023/09/10 10:23:58;;;;;;;20.15;16.20;;;;;;;31.50;93.28;101599.69;5066231;28;20053;-58
2023/09/10 10:26:30;;;;;;;20.75;14.73;;;;;;;31.86;94.16;101595.41;5068699;28;20043;-57
2023/09/10 10:29:01;;;;;;;19.83;11.98;;;;;;;32.17;89.46;101599.91;5071387;28;20049;-60
2023/09/10 10:31:33;;;;;;;19.13;10.77;;;;;;;32.24;84.43;101599.84;5071506;28;20045;-60
2023/09/10 10:34:05;;;;;;;17.73;10.55;;;;;;;32.43;86.04;101603.41;5071459;28;20441;-59
2023/09/10 10:36:43;;;;;;;17.90;10.38;;;;;;;32.35;83.36;101595.53;5071424;28;20052;-59
2023/09/10 10:39:15;;;;;;;16.98;11.88;;;;;;;32.63;83.39;101597.69;5071438;28;20543;-60
2023/09/10 10:41:45;;;;;;;;;;;;;;;32.54;82.43;101590.91;5070611;28;20040;-59
2023/09/10 10:44:20;;;;;;;20.13;13.35;;;;;;;32.52;84.45;101596.59;5071322;28;19927;-60
2023/09/10 10:46:58;;;;;;;16.30;13.07;;;;;;;32.69;83.84;101588.59;5068036;28;20116;-60
2023/09/10 10:49:29;;;;;;;21.48;14.98;;;;;;;32.89;83.11;101587.53;5069543;28;20052;-60
2023/09/10 10:52:02;;;;;;;17.80;14.10;;;;;;;32.91;83.74;101584.59;5072226;28;20053;-60
2023/09/10 10:54:33;;;;;;;21.67;15.13;;;;;;;33.03;80.20;101591.72;5075033;28;20056;-57
2023/09/10 10:57:03;;;;;;;18.17;14.13;;;;;;;33.08;82.05;101582.00;5075092;28;20055;-59
2023/09/10 10:59:33;;;;;;;17.90;14.32;;;;;;;33.15;81.22;101582.75;5074974;28;20048;-58
2023/09/10 11:02:26;;;;;;;21.08;14.63;;;;;;;33.32;81.42;101578.31;5072683;28;20052;-58
2023/09/10 11:04:55;;;;;;;17.27;12.23;;;;;;;33.72;81.78;101581.41;5055112;28;20616;-58
2023/09/10 11:07:24;;;;;;;18.15;13.85;;;;;;;33.75;79.36;101576.31;5074937;28;20036;-58
2023/09/10 11:09:52;;;;;;;17.38;12.73;;;;;;;33.98;79.40;101582.84;5073213;28;20056;-58
2023/09/10 11:12:20;;;;;;;19.75;11.95;;;;;;;34.05;80.81;101575.38;5069325;28;20071;-58